Главная страница
METAR-TAF:

METAR-TAF

Аэропорты :

Анкоридж, Аляска, США

широта: 61-10-28N, долгота: 149-59-46W, высота над уровнем моря: 44 м

Текущие метеонаблюдения

Эта сводка был подготовлена 41 минут назад, в 16:53 UTC
Ветер 5 Узел от юго-западный
Температура 13°C
Влажность 77%
Давление 1020 hPa
Видимость: 16.1 км
небольшая облачность на высоте 3500 фута
Рассеянная облачность на высоте 5500 фута
Рассеянная облачность на высоте 7000 фута

METAR: PANC 171653Z 23005KT 10SM FEW035 BKN055 BKN070 13/09 A3013 RMK AO2 SLP203 T01280094

Время: 09:34 (17:34 UTC)

Прогноз

Эта сводка был подготовлена 2 часа и 30 минут назад, в 15:04 UTC
Прогноз действительный с 17-го 15 UTC до 18-го 18 UTC
Ветер 8 Узел от южный-юго-западный
Видимость: 10 км
Отдельные облака на высоте 4000 фута
Сплошная облачность на высоте 6000 фута
С 17-го 2200 UTC
Ветер 8 Узел от южный-юго-западный
Видимость: 10 км
Отдельные облака на высоте 7000 фута

TAF: PANC 171504Z 1715/1818 21008KT P6SM SCT040 OVC060 FM172200 21008KT P6SM SCT070

Метеонаблюдения и прогнозы для более 4000 аэропортов (сводки METAR и TAF).

Имеющиеся станции представлены на карте желтыми и красными точками.

Чтобы увидеть название станции, наведите на нее мышь.

Затем щелкните, чтобы увидеть метеонаблюдения и метеопрогнозы.

Управление картой: чтобы увеличить масштаб, щелкните зеленые кнопки с черным крестиком; чтобы уменьшить масштаб, щелкните зеленую кнопку с тире; для просмотра соседних карт щелкайте зеленые стрелки.


METAR-TAF: